sensor_id;sensor_type;location;lat;lon;timestamp;temperature;humidity
21355;DHT22;10835;50.148;19.760;2023-11-19T00:02:04;18.20;44.60
21355;DHT22;10835;50.148;19.760;2023-11-19T00:04:36;18.00;44.80
21355;DHT22;10835;50.148;19.760;2023-11-19T00:07:07;18.00;44.80
21355;DHT22;10835;50.148;19.760;2023-11-19T00:09:37;18.00;44.70
21355;DHT22;10835;50.148;19.760;2023-11-19T00:12:07;17.90;45.00
21355;DHT22;10835;50.148;19.760;2023-11-19T00:14:35;18.00;45.40
21355;DHT22;10835;50.148;19.760;2023-11-19T00:17:04;17.90;45.60
21355;DHT22;10835;50.148;19.760;2023-11-19T00:19:32;18.00;45.60
21355;DHT22;10835;50.148;19.760;2023-11-19T00:22:01;18.00;45.20
21355;DHT22;10835;50.148;19.760;2023-11-19T00:24:32;17.90;45.10
21355;DHT22;10835;50.148;19.760;2023-11-19T00:27:04;18.00;45.20
21355;DHT22;10835;50.148;19.760;2023-11-19T00:29:35;18.10;45.30
21355;DHT22;10835;50.148;19.760;2023-11-19T00:32:04;18.10;45.20
21355;DHT22;10835;50.148;19.760;2023-11-19T00:34:34;18.00;45.00
21355;DHT22;10835;50.148;19.760;2023-11-19T00:37:03;17.90;45.00
21355;DHT22;10835;50.148;19.760;2023-11-19T00:39:33;17.90;45.10
21355;DHT22;10835;50.148;19.760;2023-11-19T00:42:02;18.20;45.40
21355;DHT22;10835;50.148;19.760;2023-11-19T00:44:31;18.20;45.30
21355;DHT22;10835;50.148;19.760;2023-11-19T00:47:00;18.10;45.00
21355;DHT22;10835;50.148;19.760;2023-11-19T00:49:28;17.20;45.40
21355;DHT22;10835;50.148;19.760;2023-11-19T00:51:57;16.90;46.20
21355;DHT22;10835;50.148;19.760;2023-11-19T00:54:28;17.30;46.30
21355;DHT22;10835;50.148;19.760;2023-11-19T00:56:58;17.70;45.50
21355;DHT22;10835;50.148;19.760;2023-11-19T00:59:28;17.70;45.80
21355;DHT22;10835;50.148;19.760;2023-11-19T01:01:57;17.60;45.30
21355;DHT22;10835;50.148;19.760;2023-11-19T01:04:26;17.60;45.60
21355;DHT22;10835;50.148;19.760;2023-11-19T01:06:55;17.80;45.30
21355;DHT22;10835;50.148;19.760;2023-11-19T01:09:23;18.00;44.90
21355;DHT22;10835;50.148;19.760;2023-11-19T01:11:54;18.10;45.00
21355;DHT22;10835;50.148;19.760;2023-11-19T01:14:23;18.20;44.50
21355;DHT22;10835;50.148;19.760;2023-11-19T01:16:52;18.10;44.40
21355;DHT22;10835;50.148;19.760;2023-11-19T01:19:21;18.30;44.30
21355;DHT22;10835;50.148;19.760;2023-11-19T01:21:51;18.30;44.50
21355;DHT22;10835;50.148;19.760;2023-11-19T01:24:21;18.40;44.40
21355;DHT22;10835;50.148;19.760;2023-11-19T01:26:49;18.40;44.30
21355;DHT22;10835;50.148;19.760;2023-11-19T01:29:18;18.40;44.60
21355;DHT22;10835;50.148;19.760;2023-11-19T01:31:48;18.50;45.30
21355;DHT22;10835;50.148;19.760;2023-11-19T01:34:19;18.50;43.80
21355;DHT22;10835;50.148;19.760;2023-11-19T01:36:47;18.50;43.90
21355;DHT22;10835;50.148;19.760;2023-11-19T01:39:16;18.40;43.80
21355;DHT22;10835;50.148;19.760;2023-11-19T01:41:47;18.50;44.60
21355;DHT22;10835;50.148;19.760;2023-11-19T01:44:15;18.40;44.30
21355;DHT22;10835;50.148;19.760;2023-11-19T01:46:46;18.40;44.40
21355;DHT22;10835;50.148;19.760;2023-11-19T01:49:17;18.50;44.50
21355;DHT22;10835;50.148;19.760;2023-11-19T01:51:48;18.60;44.40
21355;DHT22;10835;50.148;19.760;2023-11-19T01:54:16;18.80;44.30
21355;DHT22;10835;50.148;19.760;2023-11-19T01:56:45;18.80;43.90
21355;DHT22;10835;50.148;19.760;2023-11-19T01:59:14;18.80;43.60
21355;DHT22;10835;50.148;19.760;2023-11-19T02:01:43;18.70;43.60
21355;DHT22;10835;50.148;19.760;2023-11-19T02:04:13;18.80;43.90
21355;DHT22;10835;50.148;19.760;2023-11-19T02:06:45;18.70;43.90
21355;DHT22;10835;50.148;19.760;2023-11-19T02:09:15;18.70;43.50
21355;DHT22;10835;50.148;19.760;2023-11-19T02:11:46;18.60;43.70
21355;DHT22;10835;50.148;19.760;2023-11-19T02:14:18;18.60;43.90
21355;DHT22;10835;50.148;19.760;2023-11-19T02:16:47;18.00;44.30
21355;DHT22;10835;50.148;19.760;2023-11-19T02:19:17;17.40;45.30
21355;DHT22;10835;50.148;19.760;2023-11-19T02:21:48;16.90;46.10
21355;DHT22;10835;50.148;19.760;2023-11-19T02:24:20;17.20;46.60
21355;DHT22;10835;50.148;19.760;2023-11-19T02:26:56;17.50;46.60
21355;DHT22;10835;50.148;19.760;2023-11-19T02:29:28;17.80;46.60
21355;DHT22;10835;50.148;19.760;2023-11-19T02:31:57;17.70;45.90
21355;DHT22;10835;50.148;19.760;2023-11-19T02:34:26;17.80;46.00
21355;DHT22;10835;50.148;19.760;2023-11-19T02:36:54;18.00;45.70
21355;DHT22;10835;50.148;19.760;2023-11-19T02:39:23;18.10;45.70
21355;DHT22;10835;50.148;19.760;2023-11-19T02:41:51;18.10;45.30
21355;DHT22;10835;50.148;19.760;2023-11-19T02:44:20;18.20;45.60
21355;DHT22;10835;50.148;19.760;2023-11-19T02:46:50;18.40;45.00
21355;DHT22;10835;50.148;19.760;2023-11-19T02:49:18;18.40;44.70
21355;DHT22;10835;50.148;19.760;2023-11-19T02:51:48;18.40;44.60
21355;DHT22;10835;50.148;19.760;2023-11-19T02:54:16;18.50;44.30
21355;DHT22;10835;50.148;19.760;2023-11-19T02:56:45;18.50;44.30
21355;DHT22;10835;50.148;19.760;2023-11-19T02:59:15;18.40;44.20
21355;DHT22;10835;50.148;19.760;2023-11-19T03:01:56;18.40;44.30
21355;DHT22;10835;50.148;19.760;2023-11-19T03:04:26;18.40;44.40
21355;DHT22;10835;50.148;19.760;2023-11-19T03:06:55;18.30;44.60
21355;DHT22;10835;50.148;19.760;2023-11-19T03:09:25;18.30;44.40
21355;DHT22;10835;50.148;19.760;2023-11-19T03:11:53;18.20;44.60
21355;DHT22;10835;50.148;19.760;2023-11-19T03:14:22;18.30;44.70
21355;DHT22;10835;50.148;19.760;2023-11-19T03:16:52;18.20;44.70
21355;DHT22;10835;50.148;19.760;2023-11-19T03:19:22;18.20;44.60
21355;DHT22;10835;50.148;19.760;2023-11-19T03:21:52;18.20;44.40
21355;DHT22;10835;50.148;19.760;2023-11-19T03:24:21;18.30;44.50
21355;DHT22;10835;50.148;19.760;2023-11-19T03:26:50;18.30;44.70
21355;DHT22;10835;50.148;19.760;2023-11-19T03:29:18;18.40;44.70
21355;DHT22;10835;50.148;19.760;2023-11-19T03:31:47;18.30;44.90
21355;DHT22;10835;50.148;19.760;2023-11-19T03:34:15;18.30;44.60
21355;DHT22;10835;50.148;19.760;2023-11-19T03:36:45;18.40;44.60
21355;DHT22;10835;50.148;19.760;2023-11-19T03:39:13;18.40;44.20
21355;DHT22;10835;50.148;19.760;2023-11-19T03:41:45;18.40;44.10
21355;DHT22;10835;50.148;19.760;2023-11-19T03:44:15;18.40;44.90
21355;DHT22;10835;50.148;19.760;2023-11-19T03:46:43;18.50;44.30
21355;DHT22;10835;50.148;19.760;2023-11-19T03:49:12;18.50;44.30
21355;DHT22;10835;50.148;19.760;2023-11-19T03:51:41;18.50;44.40
21355;DHT22;10835;50.148;19.760;2023-11-19T03:54:11;18.50;44.20
21355;DHT22;10835;50.148;19.760;2023-11-19T03:56:39;18.50;44.20
21355;DHT22;10835;50.148;19.760;2023-11-19T03:59:08;18.50;44.40
21355;DHT22;10835;50.148;19.760;2023-11-19T04:01:37;18.50;44.30
21355;DHT22;10835;50.148;19.760;2023-11-19T04:04:05;18.30;44.50
21355;DHT22;10835;50.148;19.760;2023-11-19T04:06:34;18.30;44.60
21355;DHT22;10835;50.148;19.760;2023-11-19T04:09:02;18.20;44.70
21355;DHT22;10835;50.148;19.760;2023-11-19T04:11:32;18.20;44.90
21355;DHT22;10835;50.148;19.760;2023-11-19T04:14:01;18.20;44.90
21355;DHT22;10835;50.148;19.760;2023-11-19T04:16:29;18.40;45.00
21355;DHT22;10835;50.148;19.760;2023-11-19T04:18:58;18.40;44.90
21355;DHT22;10835;50.148;19.760;2023-11-19T04:21:26;18.30;45.50
21355;DHT22;10835;50.148;19.760;2023-11-19T04:23:55;18.10;45.30
21355;DHT22;10835;50.148;19.760;2023-11-19T04:26:23;18.20;45.30
21355;DHT22;10835;50.148;19.760;2023-11-19T04:28:53;18.20;45.30
21355;DHT22;10835;50.148;19.760;2023-11-19T04:31:22;18.20;45.40
21355;DHT22;10835;50.148;19.760;2023-11-19T04:33:53;18.40;45.30
21355;DHT22;10835;50.148;19.760;2023-11-19T04:36:22;18.40;45.20
21355;DHT22;10835;50.148;19.760;2023-11-19T04:38:51;18.40;45.00
21355;DHT22;10835;50.148;19.760;2023-11-19T04:41:20;18.40;45.20
21355;DHT22;10835;50.148;19.760;2023-11-19T04:43:48;18.30;45.00
21355;DHT22;10835;50.148;19.760;2023-11-19T04:46:18;18.30;45.20
21355;DHT22;10835;50.148;19.760;2023-11-19T04:48:47;18.20;45.00
21355;DHT22;10835;50.148;19.760;2023-11-19T04:51:16;18.10;45.30
21355;DHT22;10835;50.148;19.760;2023-11-19T04:53:44;18.00;45.40
21355;DHT22;10835;50.148;19.760;2023-11-19T04:56:13;18.00;45.90
21355;DHT22;10835;50.148;19.760;2023-11-19T04:58:42;18.00;45.90
21355;DHT22;10835;50.148;19.760;2023-11-19T05:01:14;17.90;45.70
21355;DHT22;10835;50.148;19.760;2023-11-19T05:03:45;17.90;46.00
21355;DHT22;10835;50.148;19.760;2023-11-19T05:06:14;18.00;46.00
21355;DHT22;10835;50.148;19.760;2023-11-19T05:08:42;18.00;45.90
21355;DHT22;10835;50.148;19.760;2023-11-19T05:11:11;17.70;45.80
21355;DHT22;10835;50.148;19.760;2023-11-19T05:13:44;17.80;46.10
21355;DHT22;10835;50.148;19.760;2023-11-19T05:16:13;17.90;46.10
21355;DHT22;10835;50.148;19.760;2023-11-19T05:18:42;17.90;46.00
21355;DHT22;10835;50.148;19.760;2023-11-19T05:21:13;17.90;45.90
21355;DHT22;10835;50.148;19.760;2023-11-19T05:23:41;18.00;45.90
21355;DHT22;10835;50.148;19.760;2023-11-19T05:26:16;18.00;45.90
21355;DHT22;10835;50.148;19.760;2023-11-19T05:28:45;18.10;45.70
21355;DHT22;10835;50.148;19.760;2023-11-19T05:31:13;18.20;45.70
21355;DHT22;10835;50.148;19.760;2023-11-19T05:33:42;18.20;45.30
21355;DHT22;10835;50.148;19.760;2023-11-19T05:36:13;18.30;45.20
21355;DHT22;10835;50.148;19.760;2023-11-19T05:38:41;18.20;45.10
21355;DHT22;10835;50.148;19.760;2023-11-19T05:41:14;18.20;45.30
21355;DHT22;10835;50.148;19.760;2023-11-19T05:43:42;17.80;45.50
21355;DHT22;10835;50.148;19.760;2023-11-19T05:46:11;17.90;45.90
21355;DHT22;10835;50.148;19.760;2023-11-19T05:48:43;18.10;45.80
21355;DHT22;10835;50.148;19.760;2023-11-19T05:51:15;18.20;45.70
21355;DHT22;10835;50.148;19.760;2023-11-19T05:53:43;18.20;45.50
21355;DHT22;10835;50.148;19.760;2023-11-19T05:56:13;18.30;45.60
21355;DHT22;10835;50.148;19.760;2023-11-19T05:58:43;18.30;45.30
21355;DHT22;10835;50.148;19.760;2023-11-19T06:01:13;18.40;45.40
21355;DHT22;10835;50.148;19.760;2023-11-19T06:03:41;18.30;45.30
21355;DHT22;10835;50.148;19.760;2023-11-19T06:06:16;18.30;45.40
21355;DHT22;10835;50.148;19.760;2023-11-19T06:08:44;18.20;45.50
21355;DHT22;10835;50.148;19.760;2023-11-19T06:11:14;18.20;45.60
21355;DHT22;10835;50.148;19.760;2023-11-19T06:13:45;18.30;45.80
21355;DHT22;10835;50.148;19.760;2023-11-19T06:16:15;18.40;45.70
21355;DHT22;10835;50.148;19.760;2023-11-19T06:18:43;18.40;45.70
21355;DHT22;10835;50.148;19.760;2023-11-19T06:21:12;18.30;45.80
21355;DHT22;10835;50.148;19.760;2023-11-19T06:23:42;18.10;46.10
21355;DHT22;10835;50.148;19.760;2023-11-19T06:26:11;18.10;46.20
21355;DHT22;10835;50.148;19.760;2023-11-19T06:28:41;18.20;46.30
21355;DHT22;10835;50.148;19.760;2023-11-19T06:31:09;18.10;46.10
21355;DHT22;10835;50.148;19.760;2023-11-19T06:33:38;18.20;46.20
21355;DHT22;10835;50.148;19.760;2023-11-19T06:36:08;18.20;46.30
21355;DHT22;10835;50.148;19.760;2023-11-19T06:38:36;18.20;46.40
21355;DHT22;10835;50.148;19.760;2023-11-19T06:41:09;18.30;46.20
21355;DHT22;10835;50.148;19.760;2023-11-19T06:43:37;18.30;46.10
21355;DHT22;10835;50.148;19.760;2023-11-19T06:46:15;18.30;45.90
21355;DHT22;10835;50.148;19.760;2023-11-19T06:48:43;18.20;46.00
21355;DHT22;10835;50.148;19.760;2023-11-19T06:51:12;18.10;46.10
21355;DHT22;10835;50.148;19.760;2023-11-19T06:53:42;17.80;46.20
21355;DHT22;10835;50.148;19.760;2023-11-19T06:56:22;17.90;46.70
21355;DHT22;10835;50.148;19.760;2023-11-19T06:58:51;17.80;46.60
21355;DHT22;10835;50.148;19.760;2023-11-19T07:01:20;17.70;46.80
21355;DHT22;10835;50.148;19.760;2023-11-19T07:03:49;17.70;47.00
21355;DHT22;10835;50.148;19.760;2023-11-19T07:06:18;17.60;47.20
21355;DHT22;10835;50.148;19.760;2023-11-19T07:09:00;17.50;47.30
21355;DHT22;10835;50.148;19.760;2023-11-19T07:11:38;17.50;47.40
21355;DHT22;10835;50.148;19.760;2023-11-19T07:14:07;17.30;47.50
21355;DHT22;10835;50.148;19.760;2023-11-19T07:16:36;17.40;47.80
21355;DHT22;10835;50.148;19.760;2023-11-19T07:19:06;17.30;47.90
21355;DHT22;10835;50.148;19.760;2023-11-19T07:21:35;17.20;48.40
21355;DHT22;10835;50.148;19.760;2023-11-19T07:24:07;17.30;48.00
21355;DHT22;10835;50.148;19.760;2023-11-19T07:26:41;17.50;48.10
21355;DHT22;10835;50.148;19.760;2023-11-19T07:29:10;17.70;47.80
21355;DHT22;10835;50.148;19.760;2023-11-19T07:31:39;17.70;47.30
21355;DHT22;10835;50.148;19.760;2023-11-19T07:34:07;17.50;47.50
21355;DHT22;10835;50.148;19.760;2023-11-19T07:36:37;17.40;47.40
21355;DHT22;10835;50.148;19.760;2023-11-19T07:39:06;17.50;47.90
21355;DHT22;10835;50.148;19.760;2023-11-19T07:41:37;17.60;47.80
21355;DHT22;10835;50.148;19.760;2023-11-19T07:44:05;17.70;47.60
21355;DHT22;10835;50.148;19.760;2023-11-19T07:46:34;17.70;47.40
21355;DHT22;10835;50.148;19.760;2023-11-19T07:49:03;17.80;47.60
21355;DHT22;10835;50.148;19.760;2023-11-19T07:51:31;18.00;47.50
21355;DHT22;10835;50.148;19.760;2023-11-19T07:54:00;17.90;47.20
21355;DHT22;10835;50.148;19.760;2023-11-19T07:56:28;18.10;47.30
21355;DHT22;10835;50.148;19.760;2023-11-19T07:58:58;18.00;47.10
21355;DHT22;10835;50.148;19.760;2023-11-19T08:01:27;17.70;46.90
21355;DHT22;10835;50.148;19.760;2023-11-19T08:03:55;17.90;47.50
21355;DHT22;10835;50.148;19.760;2023-11-19T08:06:26;17.90;47.30
21355;DHT22;10835;50.148;19.760;2023-11-19T08:08:55;17.90;47.00
21355;DHT22;10835;50.148;19.760;2023-11-19T08:11:23;18.00;47.10
21355;DHT22;10835;50.148;19.760;2023-11-19T08:13:52;18.00;46.80
21355;DHT22;10835;50.148;19.760;2023-11-19T08:16:22;18.30;47.00
21355;DHT22;10835;50.148;19.760;2023-11-19T08:18:50;18.30;46.80
21355;DHT22;10835;50.148;19.760;2023-11-19T08:21:19;18.50;46.60
21355;DHT22;10835;50.148;19.760;2023-11-19T08:23:48;18.50;46.10
21355;DHT22;10835;50.148;19.760;2023-11-19T08:26:17;18.50;46.30
21355;DHT22;10835;50.148;19.760;2023-11-19T08:28:48;18.50;46.20
21355;DHT22;10835;50.148;19.760;2023-11-19T08:31:17;18.50;45.90
21355;DHT22;10835;50.148;19.760;2023-11-19T08:33:47;18.50;45.90
21355;DHT22;10835;50.148;19.760;2023-11-19T08:36:15;18.40;46.10
21355;DHT22;10835;50.148;19.760;2023-11-19T08:38:45;18.20;46.80
21355;DHT22;10835;50.148;19.760;2023-11-19T08:41:16;18.30;46.80
21355;DHT22;10835;50.148;19.760;2023-11-19T08:43:45;18.50;46.50
21355;DHT22;10835;50.148;19.760;2023-11-19T08:46:14;18.70;45.90
21355;DHT22;10835;50.148;19.760;2023-11-19T08:48:42;18.80;45.60
21355;DHT22;10835;50.148;19.760;2023-11-19T08:51:12;18.80;45.20
21355;DHT22;10835;50.148;19.760;2023-11-19T08:53:41;18.80;45.60
21355;DHT22;10835;50.148;19.760;2023-11-19T08:56:09;18.50;45.50
21355;DHT22;10835;50.148;19.760;2023-11-19T08:58:38;18.50;45.90
21355;DHT22;10835;50.148;19.760;2023-11-19T09:01:07;18.60;45.50
21355;DHT22;10835;50.148;19.760;2023-11-19T09:03:37;18.70;45.50
21355;DHT22;10835;50.148;19.760;2023-11-19T09:06:08;18.80;45.20
21355;DHT22;10835;50.148;19.760;2023-11-19T09:08:38;18.70;44.60
21355;DHT22;10835;50.148;19.760;2023-11-19T09:11:07;18.50;45.10
21355;DHT22;10835;50.148;19.760;2023-11-19T09:13:36;18.50;45.10
21355;DHT22;10835;50.148;19.760;2023-11-19T09:16:12;18.80;44.80
21355;DHT22;10835;50.148;19.760;2023-11-19T09:18:40;18.70;45.10
21355;DHT22;10835;50.148;19.760;2023-11-19T09:21:10;18.90;44.60
21355;DHT22;10835;50.148;19.760;2023-11-19T09:23:40;18.80;44.50
21355;DHT22;10835;50.148;19.760;2023-11-19T09:26:09;18.70;44.60
21355;DHT22;10835;50.148;19.760;2023-11-19T09:28:39;18.80;44.50
21355;DHT22;10835;50.148;19.760;2023-11-19T09:31:14;18.90;44.80
21355;DHT22;10835;50.148;19.760;2023-11-19T09:33:45;18.80;44.50
21355;DHT22;10835;50.148;19.760;2023-11-19T09:36:14;18.70;44.80
21355;DHT22;10835;50.148;19.760;2023-11-19T09:38:47;18.90;45.70
21355;DHT22;10835;50.148;19.760;2023-11-19T09:41:16;18.80;44.90
21355;DHT22;10835;50.148;19.760;2023-11-19T09:43:47;18.80;45.00
21355;DHT22;10835;50.148;19.760;2023-11-19T09:46:16;18.80;44.90
21355;DHT22;10835;50.148;19.760;2023-11-19T09:48:44;18.90;45.10
21355;DHT22;10835;50.148;19.760;2023-11-19T09:51:15;19.20;44.90
21355;DHT22;10835;50.148;19.760;2023-11-19T09:53:45;19.00;44.00
21355;DHT22;10835;50.148;19.760;2023-11-19T09:56:14;18.80;44.70
21355;DHT22;10835;50.148;19.760;2023-11-19T09:58:44;18.70;44.70
21355;DHT22;10835;50.148;19.760;2023-11-19T10:01:12;18.90;44.00
21355;DHT22;10835;50.148;19.760;2023-11-19T10:03:47;19.20;43.50
21355;DHT22;10835;50.148;19.760;2023-11-19T10:06:16;19.40;43.70
21355;DHT22;10835;50.148;19.760;2023-11-19T10:08:47;19.50;43.50
21355;DHT22;10835;50.148;19.760;2023-11-19T10:11:17;19.50;43.60
21355;DHT22;10835;50.148;19.760;2023-11-19T10:13:46;19.50;43.50
21355;DHT22;10835;50.148;19.760;2023-11-19T10:16:15;19.10;43.80
21355;DHT22;10835;50.148;19.760;2023-11-19T10:18:46;19.40;43.20
21355;DHT22;10835;50.148;19.760;2023-11-19T10:21:15;19.20;43.40
21355;DHT22;10835;50.148;19.760;2023-11-19T10:24:00;19.50;43.10
21355;DHT22;10835;50.148;19.760;2023-11-19T10:26:29;19.10;43.50
21355;DHT22;10835;50.148;19.760;2023-11-19T10:28:58;19.00;44.10
21355;DHT22;10835;50.148;19.760;2023-11-19T10:31:27;19.10;43.80
21355;DHT22;10835;50.148;19.760;2023-11-19T10:33:55;19.10;43.50
21355;DHT22;10835;50.148;19.760;2023-11-19T10:36:37;19.10;43.90
21355;DHT22;10835;50.148;19.760;2023-11-19T10:39:09;19.10;44.10
21355;DHT22;10835;50.148;19.760;2023-11-19T10:41:38;18.50;44.10
21355;DHT22;10835;50.148;19.760;2023-11-19T10:44:07;18.70;44.40
21355;DHT22;10835;50.148;19.760;2023-11-19T10:46:37;18.90;43.80
21355;DHT22;10835;50.148;19.760;2023-11-19T10:49:06;18.90;43.70
21355;DHT22;10835;50.148;19.760;2023-11-19T10:51:35;18.70;43.80
21355;DHT22;10835;50.148;19.760;2023-11-19T10:54:04;18.80;44.40
21355;DHT22;10835;50.148;19.760;2023-11-19T10:56:35;18.70;44.00
21355;DHT22;10835;50.148;19.760;2023-11-19T10:59:05;18.10;44.80
21355;DHT22;10835;50.148;19.760;2023-11-19T11:01:43;18.30;44.60
21355;DHT22;10835;50.148;19.760;2023-11-19T11:04:14;18.80;44.00
21355;DHT22;10835;50.148;19.760;2023-11-19T11:06:44;18.50;44.10
21355;DHT22;10835;50.148;19.760;2023-11-19T11:09:13;18.30;44.40
21355;DHT22;10835;50.148;19.760;2023-11-19T11:11:46;18.60;44.60
21355;DHT22;10835;50.148;19.760;2023-11-19T11:14:16;18.70;44.50
21355;DHT22;10835;50.148;19.760;2023-11-19T11:16:48;18.70;44.30
21355;DHT22;10835;50.148;19.760;2023-11-19T11:19:17;18.80;44.60
21355;DHT22;10835;50.148;19.760;2023-11-19T11:21:50;18.90;44.20
21355;DHT22;10835;50.148;19.760;2023-11-19T11:24:52;19.10;44.60
21355;DHT22;10835;50.148;19.760;2023-11-19T11:27:52;18.90;44.00
21355;DHT22;10835;50.148;19.760;2023-11-19T11:30:32;19.00;44.20
21355;DHT22;10835;50.148;19.760;2023-11-19T11:33:15;19.10;44.40
21355;DHT22;10835;50.148;19.760;2023-11-19T11:35:55;19.30;44.10
21355;DHT22;10835;50.148;19.760;2023-11-19T11:38:30;19.30;43.90
21355;DHT22;10835;50.148;19.760;2023-11-19T11:41:21;19.30;44.20
21355;DHT22;10835;50.148;19.760;2023-11-19T11:43:57;19.10;44.20
21355;DHT22;10835;50.148;19.760;2023-11-19T11:46:55;19.20;44.20
21355;DHT22;10835;50.148;19.760;2023-11-19T11:49:28;19.10;44.50
21355;DHT22;10835;50.148;19.760;2023-11-19T11:52:03;19.10;44.60
21355;DHT22;10835;50.148;19.760;2023-11-19T11:54:32;18.70;45.40
21355;DHT22;10835;50.148;19.760;2023-11-19T11:57:08;19.00;45.40
21355;DHT22;10835;50.148;19.760;2023-11-19T11:59:46;19.10;45.00
21355;DHT22;10835;50.148;19.760;2023-11-19T12:02:16;18.70;44.90
21355;DHT22;10835;50.148;19.760;2023-11-19T12:04:48;18.10;45.90
21355;DHT22;10835;50.148;19.760;2023-11-19T12:07:21;18.60;46.70
21355;DHT22;10835;50.148;19.760;2023-11-19T12:09:52;18.80;46.50
21355;DHT22;10835;50.148;19.760;2023-11-19T12:12:26;18.70;45.80
21355;DHT22;10835;50.148;19.760;2023-11-19T12:15:06;18.80;45.80
21355;DHT22;10835;50.148;19.760;2023-11-19T12:17:43;18.80;45.80
21355;DHT22;10835;50.148;19.760;2023-11-19T12:20:18;18.80;46.10
21355;DHT22;10835;50.148;19.760;2023-11-19T12:22:50;18.80;46.20
21355;DHT22;10835;50.148;19.760;2023-11-19T12:25:19;18.80;46.30
21355;DHT22;10835;50.148;19.760;2023-11-19T12:27:50;18.70;46.20
21355;DHT22;10835;50.148;19.760;2023-11-19T12:30:24;18.80;46.20
21355;DHT22;10835;50.148;19.760;2023-11-19T12:32:54;18.80;46.20
21355;DHT22;10835;50.148;19.760;2023-11-19T12:35:23;18.90;46.00
21355;DHT22;10835;50.148;19.760;2023-11-19T12:37:52;18.90;45.60
21355;DHT22;10835;50.148;19.760;2023-11-19T12:40:22;18.80;45.90
21355;DHT22;10835;50.148;19.760;2023-11-19T12:42:51;18.80;45.90
21355;DHT22;10835;50.148;19.760;2023-11-19T12:45:22;18.90;45.70
21355;DHT22;10835;50.148;19.760;2023-11-19T12:48:04;18.70;45.60
21355;DHT22;10835;50.148;19.760;2023-11-19T12:50:51;18.90;46.20
21355;DHT22;10835;50.148;19.760;2023-11-19T12:53:20;18.90;45.80
21355;DHT22;10835;50.148;19.760;2023-11-19T12:55:49;18.60;46.20
21355;DHT22;10835;50.148;19.760;2023-11-19T12:58:31;18.80;46.10
21355;DHT22;10835;50.148;19.760;2023-11-19T13:01:02;18.90;45.80
21355;DHT22;10835;50.148;19.760;2023-11-19T13:03:31;18.90;45.80
21355;DHT22;10835;50.148;19.760;2023-11-19T13:06:04;19.00;45.70
21355;DHT22;10835;50.148;19.760;2023-11-19T13:08:39;19.10;45.70
21355;DHT22;10835;50.148;19.760;2023-11-19T13:11:08;19.10;45.50
21355;DHT22;10835;50.148;19.760;2023-11-19T13:13:56;19.10;45.50
21355;DHT22;10835;50.148;19.760;2023-11-19T13:16:27;19.10;45.60
21355;DHT22;10835;50.148;19.760;2023-11-19T13:18:57;19.10;45.50
21355;DHT22;10835;50.148;19.760;2023-11-19T13:21:26;19.10;45.60
21355;DHT22;10835;50.148;19.760;2023-11-19T13:23:55;19.10;45.60
21355;DHT22;10835;50.148;19.760;2023-11-19T13:26:23;19.10;45.70
21355;DHT22;10835;50.148;19.760;2023-11-19T13:28:52;19.10;45.70
21355;DHT22;10835;50.148;19.760;2023-11-19T13:31:21;19.10;45.70
21355;DHT22;10835;50.148;19.760;2023-11-19T13:33:51;19.10;45.70
21355;DHT22;10835;50.148;19.760;2023-11-19T13:36:20;19.10;45.70
21355;DHT22;10835;50.148;19.760;2023-11-19T13:38:49;19.00;45.70
21355;DHT22;10835;50.148;19.760;2023-11-19T13:41:17;19.00;45.80
21355;DHT22;10835;50.148;19.760;2023-11-19T13:43:46;18.90;46.00
21355;DHT22;10835;50.148;19.760;2023-11-19T13:46:14;19.00;46.00
21355;DHT22;10835;50.148;19.760;2023-11-19T13:48:43;19.00;46.00
21355;DHT22;10835;50.148;19.760;2023-11-19T13:51:13;19.00;46.20
21355;DHT22;10835;50.148;19.760;2023-11-19T13:53:42;19.00;46.00
21355;DHT22;10835;50.148;19.760;2023-11-19T13:56:14;19.00;45.90
21355;DHT22;10835;50.148;19.760;2023-11-19T13:58:42;18.90;45.90
21355;DHT22;10835;50.148;19.760;2023-11-19T14:01:11;19.00;46.10
21355;DHT22;10835;50.148;19.760;2023-11-19T14:03:42;18.80;46.20
21355;DHT22;10835;50.148;19.760;2023-11-19T14:06:12;18.80;46.20
21355;DHT22;10835;50.148;19.760;2023-11-19T14:08:41;18.90;46.30
21355;DHT22;10835;50.148;19.760;2023-11-19T14:11:10;19.00;46.20
21355;DHT22;10835;50.148;19.760;2023-11-19T14:13:41;19.00;46.00
21355;DHT22;10835;50.148;19.760;2023-11-19T14:16:10;19.00;46.00
21355;DHT22;10835;50.148;19.760;2023-11-19T14:18:40;18.90;46.20
21355;DHT22;10835;50.148;19.760;2023-11-19T14:21:08;19.00;46.20
21355;DHT22;10835;50.148;19.760;2023-11-19T14:23:38;19.00;46.20
21355;DHT22;10835;50.148;19.760;2023-11-19T14:26:07;18.90;46.20
21355;DHT22;10835;50.148;19.760;2023-11-19T14:28:35;18.80;46.50
21355;DHT22;10835;50.148;19.760;2023-11-19T14:31:22;18.90;46.60
21355;DHT22;10835;50.148;19.760;2023-11-19T14:33:50;18.80;46.40
21355;DHT22;10835;50.148;19.760;2023-11-19T14:36:21;18.50;46.90
21355;DHT22;10835;50.148;19.760;2023-11-19T14:38:51;18.70;47.00
21355;DHT22;10835;50.148;19.760;2023-11-19T14:41:20;18.80;46.80
21355;DHT22;10835;50.148;19.760;2023-11-19T14:43:48;18.90;46.90
21355;DHT22;10835;50.148;19.760;2023-11-19T14:46:17;18.80;46.70
21355;DHT22;10835;50.148;19.760;2023-11-19T14:48:45;18.80;46.90
21355;DHT22;10835;50.148;19.760;2023-11-19T14:51:14;18.90;46.80
21355;DHT22;10835;50.148;19.760;2023-11-19T14:53:43;19.00;46.90
21355;DHT22;10835;50.148;19.760;2023-11-19T14:56:13;19.00;46.90
21355;DHT22;10835;50.148;19.760;2023-11-19T14:58:41;19.10;46.80
21355;DHT22;10835;50.148;19.760;2023-11-19T15:01:12;19.10;46.40
21355;DHT22;10835;50.148;19.760;2023-11-19T15:03:41;18.90;46.60
21355;DHT22;10835;50.148;19.760;2023-11-19T15:06:13;18.80;46.90
21355;DHT22;10835;50.148;19.760;2023-11-19T15:08:42;19.00;46.80
21355;DHT22;10835;50.148;19.760;2023-11-19T15:11:13;19.10;46.60
21355;DHT22;10835;50.148;19.760;2023-11-19T15:13:43;19.00;46.80
21355;DHT22;10835;50.148;19.760;2023-11-19T15:16:12;19.00;46.80
21355;DHT22;10835;50.148;19.760;2023-11-19T15:18:41;19.00;46.90
21355;DHT22;10835;50.148;19.760;2023-11-19T15:21:10;18.50;47.40
21355;DHT22;10835;50.148;19.760;2023-11-19T15:23:40;18.70;47.70
21355;DHT22;10835;50.148;19.760;2023-11-19T15:26:09;18.50;47.90
21355;DHT22;10835;50.148;19.760;2023-11-19T15:28:39;18.70;47.90
21355;DHT22;10835;50.148;19.760;2023-11-19T15:31:08;18.80;47.60
21355;DHT22;10835;50.148;19.760;2023-11-19T15:33:37;18.90;47.50
21355;DHT22;10835;50.148;19.760;2023-11-19T15:36:06;18.70;47.30